YJT weather

Stephenville Airport
Stephenville, Newfoundland and Labrador, Canada

Public forecast

Using degrees Celsius for public forecast. Weather courtesy of forecast.io.

Current aviation weather report (METAR) for Stephenville Airport

Retrieved 2020/04/05 01:00 UTC (12 minutes ago):

CYJT 050100Z 34005KT 15SM BKN039 BKN080 M00/M06 A3000 RMK SC5AS2 SLP160

Aviation forecast (TAF) for Stephenville Airport

Retrieved 2020-04-05 00:42 UTC (30 minutes ago):

TAF CYJT 042338Z 0500/0524 34008KT P6SM BKN040 BKN150 TEMPO 0500/0503 BKN020 BKN150 FM050300 VRB03KT P6SM OVC030 TEMPO 0503/0510 5SM -SN SCT008 OVC015 FM051000 36008KT P6SM FEW015 BKN040 BECMG 0512/0514 30008KT RMK NXT FCST BY 050600Z